createdAt,value
2019-05-11T00:02:19.457Z,5.50
2019-05-11T00:04:49.706Z,6.20
2019-05-11T00:07:20.292Z,6.50
2019-05-11T00:09:58.113Z,6.17
2019-05-11T00:12:23.667Z,6.93
2019-05-11T00:14:53.977Z,6.93
2019-05-11T00:17:24.237Z,7.50
2019-05-11T00:19:54.432Z,6.47
2019-05-11T00:22:24.675Z,7.00
2019-05-11T00:24:54.885Z,7.07
2019-05-11T00:27:25.363Z,6.97
2019-05-11T00:29:56.925Z,6.43
2019-05-11T00:32:27.208Z,6.57
2019-05-11T00:34:57.523Z,7.50
2019-05-11T00:37:27.773Z,6.77
2019-05-11T00:40:12.044Z,7.00
2019-05-11T00:42:29.728Z,6.17
2019-05-11T00:44:59.937Z,6.93
2019-05-11T00:47:30.355Z,6.53
2019-05-11T00:50:00.562Z,6.90
2019-05-11T00:52:30.728Z,6.57
2019-05-11T00:55:00.892Z,6.80
2019-05-11T00:57:31.335Z,6.50
2019-05-11T01:00:01.525Z,7.17
2019-05-11T01:02:32.091Z,6.73
2019-05-11T01:05:02.383Z,6.17
2019-05-11T01:07:32.689Z,7.70
2019-05-11T01:10:04.493Z,7.07
2019-05-11T01:12:34.698Z,7.13
2019-05-11T01:15:06.212Z,6.57
2019-05-11T01:17:36.685Z,6.70
2019-05-11T01:20:07.519Z,6.60
2019-05-11T01:22:37.773Z,6.77
2019-05-11T01:25:08.145Z,7.13
2019-05-11T01:27:38.328Z,6.47
2019-05-11T01:30:09.774Z,5.45
2019-05-11T01:32:39.872Z,5.40
2019-05-11T01:35:10.393Z,6.07
2019-05-11T01:37:40.812Z,5.63
2019-05-11T01:40:11.481Z,6.83
2019-05-11T01:42:41.776Z,6.47
2019-05-11T01:45:12.132Z,6.83
2019-05-11T01:47:42.345Z,6.57
2019-05-11T01:50:13.004Z,6.00
2019-05-11T01:52:43.159Z,7.10
2019-05-11T01:55:13.493Z,7.97
2019-05-11T01:57:43.837Z,7.10
2019-05-11T02:00:13.980Z,7.23
2019-05-11T02:02:44.412Z,7.30
2019-05-11T02:05:31.603Z,7.23
2019-05-11T02:08:03.013Z,6.07
2019-05-11T02:10:33.164Z,6.70
2019-05-11T02:13:03.216Z,7.03
2019-05-11T02:15:33.639Z,7.00
2019-05-11T02:18:04.070Z,7.47
2019-05-11T02:20:34.333Z,7.10
2019-05-11T02:23:04.409Z,7.90
2019-05-11T02:25:34.573Z,8.00
2019-05-11T02:28:05.001Z,7.30
2019-05-11T02:30:35.220Z,6.73
2019-05-11T02:33:05.297Z,8.27
2019-05-11T02:35:35.361Z,8.23
2019-05-11T02:38:05.451Z,8.83
2019-05-11T02:40:35.524Z,7.77
2019-05-11T02:43:06.130Z,7.33
2019-05-11T02:45:39.547Z,7.53
2019-05-11T02:48:10.507Z,8.10
2019-05-11T02:50:40.738Z,8.13
2019-05-11T02:53:11.235Z,7.17
2019-05-11T02:55:41.367Z,7.87
2019-05-11T02:58:11.655Z,7.13
2019-05-11T03:00:45.674Z,7.07
2019-05-11T03:03:16.116Z,7.93
2019-05-11T03:05:46.213Z,8.10
2019-05-11T03:08:16.280Z,8.30
2019-05-11T03:10:46.495Z,7.80
2019-05-11T03:13:16.828Z,7.73
2019-05-11T03:15:47.192Z,7.80
2019-05-11T03:18:17.318Z,7.50
2019-05-11T03:20:47.447Z,7.77
2019-05-11T03:23:17.592Z,7.77
2019-05-11T03:25:47.779Z,7.60
2019-05-11T03:28:18.231Z,7.80
2019-05-11T03:30:48.463Z,7.50
2019-05-11T03:33:18.606Z,6.70
2019-05-11T03:35:49.177Z,6.57
2019-05-11T03:38:19.303Z,6.43
2019-05-11T03:40:49.479Z,7.63
2019-05-11T03:43:19.503Z,7.83
2019-05-11T03:45:49.645Z,7.10
2019-05-11T03:48:19.690Z,6.90
2019-05-11T03:50:50.033Z,6.63
2019-05-11T03:53:20.478Z,6.80
2019-05-11T03:55:50.609Z,6.07
2019-05-11T03:58:24.924Z,5.57
2019-05-11T04:00:52.447Z,5.47
2019-05-11T04:03:22.633Z,6.20
2019-05-11T04:05:52.977Z,6.97
2019-05-11T04:08:23.309Z,5.93
2019-05-11T04:10:53.453Z,6.20
2019-05-11T04:13:23.520Z,5.97
2019-05-11T04:15:53.539Z,6.13
2019-05-11T04:18:23.789Z,5.40
2019-05-11T04:20:53.971Z,5.90
2019-05-11T04:23:24.255Z,6.60
2019-05-11T04:25:54.542Z,5.67
2019-05-11T04:28:24.619Z,4.90
2019-05-11T04:30:54.911Z,4.67
2019-05-11T04:33:24.964Z,5.23
2019-05-11T04:35:55.057Z,8.93
2019-05-11T04:38:25.315Z,5.20
2019-05-11T04:40:55.415Z,4.83
2019-05-11T04:43:25.478Z,6.20
2019-05-11T04:45:55.598Z,5.70
2019-05-11T04:48:25.722Z,5.57
2019-05-11T04:50:55.802Z,5.20
2019-05-11T04:53:25.862Z,5.60
2019-05-11T04:55:55.937Z,6.80
2019-05-11T04:58:26.055Z,6.47
2019-05-11T05:00:56.230Z,5.87
2019-05-11T05:03:39.721Z,6.00
2019-05-11T05:06:21.206Z,5.90
2019-05-11T05:08:30.567Z,7.10
2019-05-11T05:11:00.936Z,4.50
2019-05-11T05:13:32.180Z,5.80
2019-05-11T05:16:02.795Z,6.50
2019-05-11T05:18:32.892Z,5.80
2019-05-11T05:21:03.063Z,6.40
2019-05-11T05:23:33.141Z,7.10
2019-05-11T05:26:03.444Z,6.17
2019-05-11T05:28:33.713Z,6.50
2019-05-11T05:31:04.007Z,6.57
2019-05-11T05:33:34.243Z,5.60
2019-05-11T05:36:04.523Z,6.00
2019-05-11T05:38:34.756Z,5.60
2019-05-11T05:41:04.945Z,4.00
2019-05-11T05:43:35.023Z,5.37
2019-05-11T05:46:05.183Z,5.17
2019-05-11T05:48:35.352Z,4.90
2019-05-11T05:51:05.591Z,4.67
2019-05-11T05:53:35.721Z,5.00
2019-05-11T05:56:05.916Z,5.53
2019-05-11T05:58:36.219Z,4.87
2019-05-11T06:01:09.877Z,5.00
2019-05-11T06:03:38.241Z,5.40
2019-05-11T06:06:08.325Z,4.50
2019-05-11T06:08:38.414Z,5.60
2019-05-11T06:11:09.089Z,5.00
2019-05-11T06:13:45.343Z,5.33
2019-05-11T06:16:11.077Z,5.20
2019-05-11T06:18:41.235Z,4.33
2019-05-11T06:21:11.465Z,5.17
2019-05-11T06:23:42.086Z,4.00
2019-05-11T06:26:12.238Z,4.10
2019-05-11T06:28:42.381Z,3.63
2019-05-11T06:31:12.852Z,3.80
2019-05-11T06:33:42.956Z,4.90
2019-05-11T06:36:13.138Z,3.77
2019-05-11T06:38:43.344Z,4.70
2019-05-11T06:41:13.428Z,4.40
2019-05-11T06:43:59.530Z,4.50
2019-05-11T06:46:15.652Z,5.40
2019-05-11T06:48:46.053Z,5.10
2019-05-11T06:51:18.608Z,6.27
2019-05-11T06:53:49.079Z,5.17
2019-05-11T06:56:19.353Z,3.80
2019-05-11T06:58:49.621Z,4.20
2019-05-11T07:01:20.243Z,3.40
2019-05-11T07:03:50.365Z,3.17
2019-05-11T07:06:20.449Z,3.30
2019-05-11T07:08:50.539Z,3.20
2019-05-11T07:11:20.619Z,3.77
2019-05-11T07:13:50.811Z,3.10
2019-05-11T07:16:21.156Z,3.70
2019-05-11T07:18:52.440Z,3.80
2019-05-11T07:21:22.521Z,4.83
2019-05-11T07:23:52.613Z,3.40
2019-05-11T07:26:22.714Z,3.10
2019-05-11T07:28:53.111Z,3.17
2019-05-11T07:31:23.304Z,2.93
2019-05-11T07:33:53.482Z,2.80
2019-05-11T07:36:23.675Z,3.20
2019-05-11T07:38:53.834Z,3.13
2019-05-11T07:41:24.178Z,3.00
2019-05-11T07:43:54.385Z,4.63
2019-05-11T07:46:24.527Z,2.70
2019-05-11T07:48:58.223Z,3.70
2019-05-11T07:51:28.808Z,3.33
2019-05-11T07:53:59.293Z,3.67
2019-05-11T07:56:29.556Z,3.60
2019-05-11T07:59:01.482Z,3.53
2019-05-11T08:01:31.763Z,3.60
2019-05-11T08:04:01.939Z,3.40
2019-05-11T08:06:32.209Z,2.90
2019-05-11T08:09:02.516Z,3.43
2019-05-11T08:11:32.648Z,3.17
2019-05-11T08:14:02.796Z,3.40
2019-05-11T08:16:32.911Z,2.70
2019-05-11T08:19:06.947Z,2.87
2019-05-11T08:21:35.323Z,3.00
2019-05-11T08:24:05.393Z,2.60
2019-05-11T08:26:35.487Z,3.30
2019-05-11T08:29:07.931Z,3.40
2019-05-11T08:31:38.410Z,2.70
2019-05-11T08:34:09.171Z,2.90
2019-05-11T08:36:39.360Z,4.20
2019-05-11T08:39:09.639Z,3.00
2019-05-11T08:41:39.835Z,3.03
2019-05-11T08:44:10.084Z,2.83
2019-05-11T08:46:40.500Z,2.80
2019-05-11T08:49:19.069Z,3.07
2019-05-11T08:51:48.046Z,2.63
2019-05-11T08:54:19.700Z,2.80
2019-05-11T08:56:49.819Z,2.57
2019-05-11T08:59:20.035Z,3.00
2019-05-11T09:01:50.202Z,2.60
2019-05-11T09:04:20.604Z,2.60
2019-05-11T09:06:50.782Z,2.53
2019-05-11T09:09:21.091Z,2.83
2019-05-11T09:11:51.483Z,2.70
2019-05-11T09:14:21.833Z,2.60
2019-05-11T09:16:52.100Z,2.63
2019-05-11T09:19:22.269Z,3.10
2019-05-11T09:21:52.689Z,2.73
2019-05-11T09:24:22.866Z,4.07
2019-05-11T09:26:54.047Z,2.33
2019-05-11T09:29:24.120Z,2.50
2019-05-11T09:31:54.201Z,2.27
2019-05-11T09:34:24.560Z,3.33
2019-05-11T09:36:54.716Z,2.70
2019-05-11T09:39:24.901Z,2.57
2019-05-11T09:41:54.992Z,3.70
2019-05-11T09:44:25.106Z,3.10
2019-05-11T09:46:58.707Z,3.70
2019-05-11T09:49:43.303Z,2.83
2019-05-11T09:51:59.138Z,2.47
2019-05-11T09:54:29.903Z,2.60
2019-05-11T09:57:00.045Z,2.90
2019-05-11T09:59:31.542Z,2.73
2019-05-11T10:02:02.025Z,2.50
2019-05-11T10:04:32.172Z,2.37
2019-05-11T10:07:02.352Z,3.07
2019-05-11T10:09:32.730Z,3.27
2019-05-11T10:12:03.165Z,2.80
2019-05-11T10:14:33.244Z,2.57
2019-05-11T10:17:03.522Z,1.93
2019-05-11T10:19:33.886Z,2.70
2019-05-11T10:22:04.193Z,1.80
2019-05-11T10:24:34.299Z,2.00
2019-05-11T10:27:04.562Z,1.63
2019-05-11T10:29:34.969Z,2.20
2019-05-11T10:32:07.759Z,2.10
2019-05-11T10:34:38.614Z,2.20
2019-05-11T10:37:09.143Z,2.30
2019-05-11T10:39:39.241Z,2.00
2019-05-11T10:42:09.585Z,2.57
2019-05-11T10:44:39.958Z,2.27
2019-05-11T10:47:10.039Z,2.40
2019-05-11T10:49:40.376Z,2.37
2019-05-11T10:52:10.428Z,2.60
2019-05-11T10:54:40.528Z,2.40
2019-05-11T10:57:10.661Z,2.00
2019-05-11T10:59:40.983Z,2.30
2019-05-11T11:02:11.409Z,2.90
2019-05-11T11:04:41.507Z,2.10
2019-05-11T11:07:11.637Z,2.00
2019-05-11T11:09:41.700Z,1.83
2019-05-11T11:12:12.022Z,2.20
2019-05-11T11:14:42.393Z,2.83
2019-05-11T11:17:12.937Z,2.43
2019-05-11T11:19:45.498Z,1.90
2019-05-11T11:22:33.314Z,1.90
2019-05-11T11:24:50.090Z,2.20
2019-05-11T11:27:25.336Z,1.93
2019-05-11T11:29:55.599Z,2.33
2019-05-11T11:32:27.826Z,2.23
2019-05-11T11:34:59.648Z,1.90
2019-05-11T11:37:29.706Z,2.27
2019-05-11T11:40:00.101Z,2.43
2019-05-11T11:42:30.226Z,2.57
2019-05-11T11:45:01.974Z,2.77
2019-05-11T11:47:32.233Z,2.07
2019-05-11T11:50:02.816Z,2.30
2019-05-11T11:52:34.742Z,2.10
2019-05-11T11:55:08.202Z,1.70
2019-05-11T11:57:38.205Z,2.07
2019-05-11T12:00:10.487Z,2.00
2019-05-11T12:02:40.710Z,2.30
2019-05-11T12:05:11.199Z,1.80
2019-05-11T12:07:41.317Z,1.80
2019-05-11T12:10:12.194Z,2.70
2019-05-11T12:12:42.307Z,2.07
2019-05-11T12:15:13.171Z,2.10
2019-05-11T12:17:43.419Z,1.77
2019-05-11T12:20:18.165Z,2.00
2019-05-11T12:22:48.848Z,1.73
2019-05-11T12:25:18.922Z,2.27
2019-05-11T12:27:49.285Z,2.30
2019-05-11T12:30:21.023Z,2.17
2019-05-11T12:32:51.480Z,2.07
2019-05-11T12:35:21.993Z,1.90
2019-05-11T12:37:52.281Z,2.00
2019-05-11T12:40:22.395Z,2.00
2019-05-11T12:42:52.718Z,2.77
2019-05-11T12:45:24.455Z,2.63
2019-05-11T12:47:55.052Z,1.63
2019-05-11T12:50:31.062Z,2.60
2019-05-11T12:53:04.168Z,2.60
2019-05-11T12:55:34.404Z,3.43
2019-05-11T12:58:18.134Z,2.80
2019-05-11T13:00:48.692Z,2.43
2019-05-11T13:03:19.054Z,2.77
2019-05-11T13:05:49.189Z,2.90
2019-05-11T13:08:22.557Z,2.67
2019-05-11T13:10:52.622Z,2.40
2019-05-11T13:13:22.884Z,2.90
2019-05-11T13:15:54.473Z,2.70
2019-05-11T13:18:24.631Z,2.23
2019-05-11T13:20:54.800Z,2.30
2019-05-11T13:23:27.793Z,2.40
2019-05-11T13:25:58.534Z,2.30
2019-05-11T13:28:29.048Z,2.23
2019-05-11T13:30:59.240Z,2.00
2019-05-11T13:33:34.237Z,1.90
2019-05-11T13:36:09.884Z,1.70
2019-05-11T13:38:41.666Z,1.73
2019-05-11T13:41:12.012Z,2.00
2019-05-11T13:43:42.097Z,1.70
2019-05-11T13:46:12.288Z,2.13
2019-05-11T13:48:44.275Z,1.30
2019-05-11T13:51:14.723Z,1.47
2019-05-11T13:53:44.985Z,1.60
2019-05-11T13:56:15.276Z,1.30
2019-05-11T13:58:45.749Z,2.10
2019-05-11T14:01:18.191Z,1.50
2019-05-11T14:03:48.591Z,1.40
2019-05-11T14:06:20.154Z,1.40
2019-05-11T14:08:50.271Z,1.40
2019-05-11T14:11:23.285Z,1.33
2019-05-11T14:13:53.506Z,1.30
2019-05-11T14:16:27.121Z,1.43
2019-05-11T14:18:57.847Z,1.20
2019-05-11T14:21:28.376Z,1.40
2019-05-11T14:23:58.903Z,1.30
2019-05-11T14:26:29.306Z,1.67
2019-05-11T14:28:59.503Z,1.40
2019-05-11T14:31:30.320Z,1.50
2019-05-11T14:34:00.761Z,1.60
2019-05-11T14:36:30.908Z,1.20
2019-05-11T14:39:01.081Z,2.03
2019-05-11T14:41:32.846Z,1.40
2019-05-11T14:44:04.902Z,1.10
2019-05-11T14:46:35.075Z,1.40
2019-05-11T14:49:07.718Z,1.97
2019-05-11T14:51:39.131Z,1.33
2019-05-11T14:54:09.209Z,1.40
2019-05-11T14:56:39.413Z,1.77
2019-05-11T14:59:09.563Z,1.60
2019-05-11T15:01:39.888Z,1.50
2019-05-11T15:04:10.145Z,1.40
2019-05-11T15:06:40.346Z,2.13
2019-05-11T15:09:10.798Z,1.57
2019-05-11T15:11:40.985Z,1.67
2019-05-11T15:14:11.184Z,1.50
2019-05-11T15:16:41.456Z,1.40
2019-05-11T15:19:11.543Z,1.33
2019-05-11T15:21:41.792Z,2.43
2019-05-11T15:24:12.231Z,1.57
2019-05-11T15:26:43.525Z,1.30
2019-05-11T15:29:13.756Z,1.50
2019-05-11T15:31:57.855Z,2.27
2019-05-11T15:34:29.032Z,1.17
2019-05-11T15:37:01.128Z,1.40
2019-05-11T15:39:31.213Z,1.70
2019-05-11T15:42:10.245Z,2.60
2019-05-11T15:44:33.286Z,1.40
2019-05-11T15:47:03.436Z,1.53
2019-05-11T15:49:33.622Z,3.93
2019-05-11T15:52:03.776Z,1.67
2019-05-11T15:54:34.048Z,2.23
2019-05-11T15:57:04.265Z,1.53
2019-05-11T15:59:34.739Z,1.70
2019-05-11T16:02:05.224Z,1.77
2019-05-11T16:04:35.309Z,2.73
2019-05-11T16:07:08.315Z,1.70
2019-05-11T16:09:38.912Z,1.53
2019-05-11T16:12:09.584Z,1.67
2019-05-11T16:14:39.681Z,1.40
2019-05-11T16:17:09.974Z,1.60
2019-05-11T16:19:41.079Z,1.57
2019-05-11T16:22:11.406Z,2.00
2019-05-11T16:24:42.990Z,2.10
2019-05-11T16:27:13.257Z,1.50
2019-05-11T16:29:43.440Z,1.50
2019-05-11T16:32:15.270Z,1.70
2019-05-11T16:34:45.616Z,1.47
2019-05-11T16:37:15.692Z,1.67
2019-05-11T16:39:49.552Z,1.30
2019-05-11T16:42:19.750Z,1.50
2019-05-11T16:44:50.136Z,1.40
2019-05-11T16:47:20.297Z,1.57
2019-05-11T16:49:50.488Z,3.50
2019-05-11T16:52:20.557Z,1.60
2019-05-11T16:54:50.860Z,1.90
2019-05-11T16:57:21.037Z,1.70
2019-05-11T16:59:52.111Z,1.50
2019-05-11T17:02:22.416Z,1.70
2019-05-11T17:04:52.506Z,1.73
2019-05-11T17:07:22.794Z,2.10
2019-05-11T17:09:52.905Z,1.80
2019-05-11T17:12:24.294Z,1.70
2019-05-11T17:14:58.560Z,1.43
2019-05-11T17:17:29.484Z,1.80
2019-05-11T17:19:59.588Z,1.60
2019-05-11T17:22:29.671Z,1.63
2019-05-11T17:24:59.869Z,1.40
2019-05-11T17:27:30.211Z,2.10
2019-05-11T17:30:00.508Z,3.50
2019-05-11T17:32:30.708Z,1.83
2019-05-11T17:35:00.908Z,1.50
2019-05-11T17:37:31.148Z,1.57
2019-05-11T17:40:01.427Z,3.17
2019-05-11T17:42:31.533Z,1.30
2019-05-11T17:45:01.806Z,1.40
2019-05-11T17:47:32.061Z,2.40
2019-05-11T17:50:04.076Z,1.40
2019-05-11T17:52:34.594Z,1.40
2019-05-11T17:55:05.236Z,1.70
2019-05-11T17:57:38.239Z,1.93
2019-05-11T18:00:09.415Z,1.50
2019-05-11T18:02:39.663Z,1.30
2019-05-11T18:05:09.894Z,1.50
2019-05-11T18:07:40.283Z,1.47
2019-05-11T18:10:11.079Z,1.70
2019-05-11T18:12:41.195Z,2.10
2019-05-11T18:15:11.158Z,1.40
2019-05-11T18:17:41.220Z,1.40
2019-05-11T18:20:17.594Z,1.50
2019-05-11T18:22:43.829Z,1.63
2019-05-11T18:25:14.272Z,1.83
2019-05-11T18:27:48.008Z,1.60
2019-05-11T18:30:17.984Z,1.77
2019-05-11T18:32:48.938Z,3.23
2019-05-11T18:35:21.014Z,1.50
2019-05-11T18:37:51.206Z,1.60
2019-05-11T18:40:21.417Z,1.60
2019-05-11T18:42:51.834Z,1.40
2019-05-11T18:45:22.336Z,2.03
2019-05-11T18:47:52.792Z,1.63
2019-05-11T18:50:30.626Z,1.93
2019-05-11T18:52:55.315Z,1.80
2019-05-11T18:55:25.404Z,1.50
2019-05-11T18:57:55.520Z,1.80
2019-05-11T19:00:27.619Z,1.40
2019-05-11T19:02:58.109Z,1.40
2019-05-11T19:05:29.215Z,1.67
2019-05-11T19:07:59.841Z,1.60
2019-05-11T19:10:31.324Z,1.47
2019-05-11T19:13:01.534Z,1.63
2019-05-11T19:15:31.923Z,1.50
2019-05-11T19:18:02.135Z,1.70
2019-05-11T19:20:44.644Z,1.70
2019-05-11T19:23:04.443Z,1.73
2019-05-11T19:25:34.559Z,2.13
2019-05-11T19:28:05.003Z,1.90
2019-05-11T19:30:35.074Z,1.60
2019-05-11T19:33:05.230Z,1.53
2019-05-11T19:35:37.714Z,1.30
2019-05-11T19:38:08.699Z,1.50
2019-05-11T19:40:39.178Z,1.23
2019-05-11T19:43:09.361Z,1.50
2019-05-11T19:45:42.238Z,1.20
2019-05-11T19:48:11.339Z,1.57
2019-05-11T19:50:41.432Z,1.37
2019-05-11T19:53:11.542Z,1.30
2019-05-11T19:55:41.819Z,1.30
2019-05-11T19:58:12.200Z,1.47
2019-05-11T20:00:42.388Z,1.30
2019-05-11T20:03:12.634Z,1.20
2019-05-11T20:05:43.115Z,1.43
2019-05-11T20:08:14.322Z,1.40
2019-05-11T20:10:44.656Z,1.50
2019-05-11T20:13:15.156Z,3.33
2019-05-11T20:15:45.235Z,5.80
2019-05-11T20:18:18.365Z,3.25
2019-05-11T20:20:48.676Z,2.47
2019-05-11T20:23:19.457Z,1.60
2019-05-11T20:25:49.667Z,1.73
2019-05-11T20:28:20.140Z,1.20
2019-05-11T20:30:50.409Z,1.40
2019-05-11T20:33:20.516Z,1.33
2019-05-11T20:35:50.827Z,1.47
2019-05-11T20:38:21.158Z,1.40
2019-05-11T20:40:51.400Z,1.30
2019-05-11T20:43:21.482Z,1.50
2019-05-11T20:45:51.936Z,1.40
2019-05-11T20:48:22.323Z,1.30
2019-05-11T20:50:52.445Z,1.20
2019-05-11T20:53:22.511Z,2.17
2019-05-11T20:55:52.755Z,1.43
2019-05-11T20:58:23.095Z,1.43
2019-05-11T21:00:53.254Z,1.63
2019-05-11T21:03:23.380Z,1.30
2019-05-11T21:05:53.535Z,1.40
2019-05-11T21:08:23.702Z,1.43
2019-05-11T21:10:54.186Z,1.50
2019-05-11T21:13:25.272Z,1.60
2019-05-11T21:15:55.823Z,1.50
2019-05-11T21:18:25.983Z,1.40
2019-05-11T21:20:57.730Z,3.63
2019-05-11T21:23:28.999Z,4.40
2019-05-11T21:25:59.412Z,1.90
2019-05-11T21:28:30.671Z,1.70
2019-05-11T21:31:02.377Z,1.83
2019-05-11T21:33:32.755Z,2.73
2019-05-11T21:36:02.833Z,1.97
2019-05-11T21:38:33.024Z,2.30
2019-05-11T21:41:04.823Z,1.80
2019-05-11T21:43:37.639Z,1.80
2019-05-11T21:46:08.300Z,2.20
2019-05-11T21:48:38.863Z,2.20
2019-05-11T21:51:08.958Z,1.90
2019-05-11T21:53:39.037Z,1.60
2019-05-11T21:56:09.199Z,2.25
2019-05-11T21:58:39.445Z,1.90
2019-05-11T22:01:09.550Z,1.70
2019-05-11T22:03:39.680Z,2.07
2019-05-11T22:06:09.869Z,1.83
2019-05-11T22:08:40.011Z,3.23
2019-05-11T22:11:10.147Z,1.60
2019-05-11T22:13:40.726Z,1.53
2019-05-11T22:16:10.875Z,1.63
2019-05-11T22:18:40.977Z,1.70
2019-05-11T22:21:11.131Z,1.90
2019-05-11T22:23:41.640Z,1.57
2019-05-11T22:26:14.500Z,1.80
2019-05-11T22:28:43.617Z,2.17
2019-05-11T22:31:13.873Z,1.80
2019-05-11T22:33:44.025Z,2.20
2019-05-11T22:36:14.196Z,2.00
2019-05-11T22:38:44.648Z,1.70
2019-05-11T22:41:18.071Z,1.93
2019-05-11T22:43:48.553Z,1.80
2019-05-11T22:46:18.911Z,2.30
2019-05-11T22:48:49.133Z,2.43
2019-05-11T22:51:20.005Z,2.30
2019-05-11T22:53:50.641Z,2.57
2019-05-11T22:56:20.902Z,2.20
2019-05-11T22:58:50.973Z,2.20
2019-05-11T23:01:21.226Z,2.87
2019-05-11T23:03:51.458Z,2.90
2019-05-11T23:06:21.696Z,2.97
2019-05-11T23:08:54.145Z,3.20
2019-05-11T23:11:24.040Z,3.07
2019-05-11T23:13:54.379Z,2.33
2019-05-11T23:16:25.016Z,2.87
2019-05-11T23:18:55.105Z,2.60
2019-05-11T23:21:25.189Z,2.77
2019-05-11T23:23:55.347Z,2.70
2019-05-11T23:26:28.023Z,3.27
2019-05-11T23:28:58.067Z,3.20
2019-05-11T23:31:29.297Z,3.00
2019-05-11T23:33:59.415Z,3.50
2019-05-11T23:36:29.720Z,3.30
2019-05-11T23:39:00.097Z,3.53
2019-05-11T23:41:30.275Z,3.67
2019-05-11T23:44:00.358Z,5.00
2019-05-11T23:46:30.869Z,3.83
2019-05-11T23:49:01.014Z,3.60
2019-05-11T23:51:31.090Z,3.63
2019-05-11T23:54:01.247Z,4.20
2019-05-11T23:56:31.405Z,6.37
2019-05-11T23:59:01.599Z,4.07
